sensor_id;sensor_type;location;lat;lon;timestamp;P1;durP1;ratioP1;P2;durP2;ratioP2
56999;SDS011;42891;50.006;21.964;2023-08-30T17:19:12;5.73;;;2.60;;
56999;SDS011;42891;50.006;21.964;2023-08-30T17:23:12;4.03;;;2.77;;
56999;SDS011;42891;50.006;21.964;2023-08-30T17:27:13;6.40;;;3.10;;
56999;SDS011;42891;50.006;21.964;2023-08-30T17:31:13;6.22;;;3.20;;
56999;SDS011;42891;50.006;21.964;2023-08-30T17:35:14;4.70;;;3.50;;
56999;SDS011;42891;50.006;21.964;2023-08-30T17:39:14;3.67;;;3.30;;
56999;SDS011;42891;50.006;21.964;2023-08-30T17:43:15;6.82;;;3.85;;
56999;SDS011;42891;50.006;21.964;2023-08-30T17:47:15;6.45;;;4.40;;
56999;SDS011;42891;50.006;21.964;2023-08-30T17:51:15;9.35;;;4.05;;
56999;SDS011;42891;50.006;21.964;2023-08-30T17:55:16;7.15;;;4.50;;
56999;SDS011;42891;50.006;21.964;2023-08-30T17:59:16;7.32;;;5.15;;
56999;SDS011;42891;50.006;21.964;2023-08-30T18:03:17;7.70;;;5.10;;
56999;SDS011;42891;50.006;21.964;2023-08-30T18:07:17;6.37;;;5.47;;
56999;SDS011;42891;50.006;21.964;2023-08-30T18:11:18;10.32;;;6.05;;
56999;SDS011;42891;50.006;21.964;2023-08-30T18:15:22;9.55;;;6.40;;
56999;SDS011;42891;50.006;21.964;2023-08-30T18:19:22;12.57;;;7.40;;
56999;SDS011;42891;50.006;21.964;2023-08-30T18:23:23;12.50;;;8.03;;
56999;SDS011;42891;50.006;21.964;2023-08-30T18:27:23;12.18;;;7.68;;
56999;SDS011;42891;50.006;21.964;2023-08-30T18:31:23;10.80;;;8.00;;
56999;SDS011;42891;50.006;21.964;2023-08-30T18:35:24;13.38;;;9.02;;
56999;SDS011;42891;50.006;21.964;2023-08-30T18:39:26;12.93;;;8.60;;
56999;SDS011;42891;50.006;21.964;2023-08-30T18:43:30;18.98;;;9.80;;
56999;SDS011;42891;50.006;21.964;2023-08-30T18:47:32;13.00;;;9.13;;
56999;SDS011;42891;50.006;21.964;2023-08-30T18:51:33;17.80;;;9.52;;
56999;SDS011;42891;50.006;21.964;2023-08-30T18:55:33;13.32;;;9.70;;
56999;SDS011;42891;50.006;21.964;2023-08-30T18:59:34;13.45;;;9.73;;
56999;SDS011;42891;50.006;21.964;2023-08-30T19:03:35;14.67;;;11.30;;
56999;SDS011;42891;50.006;21.964;2023-08-30T19:07:35;12.40;;;9.57;;
56999;SDS011;42891;50.006;21.964;2023-08-30T19:11:35;18.90;;;11.23;;
56999;SDS011;42891;50.006;21.964;2023-08-30T19:15:37;13.07;;;8.98;;
56999;SDS011;42891;50.006;21.964;2023-08-30T19:19:38;11.65;;;8.75;;
56999;SDS011;42891;50.006;21.964;2023-08-30T19:23:39;13.00;;;8.90;;
56999;SDS011;42891;50.006;21.964;2023-08-30T19:27:40;14.55;;;10.20;;
56999;SDS011;42891;50.006;21.964;2023-08-30T19:31:41;12.75;;;9.75;;
56999;SDS011;42891;50.006;21.964;2023-08-30T19:35:43;13.38;;;9.18;;
56999;SDS011;42891;50.006;21.964;2023-08-30T19:39:44;17.65;;;11.50;;
56999;SDS011;42891;50.006;21.964;2023-08-30T19:43:44;14.55;;;10.45;;
56999;SDS011;42891;50.006;21.964;2023-08-30T19:47:44;13.20;;;9.23;;
56999;SDS011;42891;50.006;21.964;2023-08-30T19:51:45;18.50;;;11.35;;
56999;SDS011;42891;50.006;21.964;2023-08-30T19:55:45;15.03;;;10.70;;
56999;SDS011;42891;50.006;21.964;2023-08-30T19:59:50;15.30;;;10.15;;
56999;SDS011;42891;50.006;21.964;2023-08-30T20:03:51;17.90;;;12.00;;
56999;SDS011;42891;50.006;21.964;2023-08-30T20:07:53;17.00;;;11.52;;
56999;SDS011;42891;50.006;21.964;2023-08-30T20:11:53;19.30;;;12.52;;
56999;SDS011;42891;50.006;21.964;2023-08-30T20:15:57;15.57;;;11.23;;
56999;SDS011;42891;50.006;21.964;2023-08-30T20:20:01;21.75;;;12.80;;
56999;SDS011;42891;50.006;21.964;2023-08-30T20:24:02;20.77;;;12.57;;
56999;SDS011;42891;50.006;21.964;2023-08-30T20:28:03;19.45;;;11.80;;
56999;SDS011;42891;50.006;21.964;2023-08-30T20:32:04;17.92;;;12.15;;
56999;SDS011;42891;50.006;21.964;2023-08-30T20:36:05;21.55;;;12.52;;
56999;SDS011;42891;50.006;21.964;2023-08-30T20:40:05;22.75;;;12.35;;
56999;SDS011;42891;50.006;21.964;2023-08-30T20:44:06;20.70;;;12.85;;
56999;SDS011;42891;50.006;21.964;2023-08-30T20:48:08;17.52;;;10.18;;
56999;SDS011;42891;50.006;21.964;2023-08-30T20:52:09;16.70;;;11.30;;
56999;SDS011;42891;50.006;21.964;2023-08-30T20:56:10;22.27;;;12.13;;
56999;SDS011;42891;50.006;21.964;2023-08-30T21:00:11;19.08;;;11.52;;
56999;SDS011;42891;50.006;21.964;2023-08-30T21:04:12;15.98;;;10.30;;
56999;SDS011;42891;50.006;21.964;2023-08-30T21:08:12;21.63;;;11.63;;
56999;SDS011;42891;50.006;21.964;2023-08-30T21:12:13;18.00;;;11.47;;
56999;SDS011;42891;50.006;21.964;2023-08-30T21:16:13;19.37;;;10.77;;
56999;SDS011;42891;50.006;21.964;2023-08-30T21:20:13;17.58;;;10.10;;
56999;SDS011;42891;50.006;21.964;2023-08-30T21:24:14;19.55;;;11.40;;
56999;SDS011;42891;50.006;21.964;2023-08-30T21:28:14;18.05;;;10.88;;
56999;SDS011;42891;50.006;21.964;2023-08-30T21:32:14;17.02;;;10.95;;
56999;SDS011;42891;50.006;21.964;2023-08-30T21:36:15;21.40;;;11.75;;
56999;SDS011;42891;50.006;21.964;2023-08-30T21:40:15;19.43;;;12.00;;
56999;SDS011;42891;50.006;21.964;2023-08-30T21:44:15;20.83;;;11.77;;
56999;SDS011;42891;50.006;21.964;2023-08-30T21:48:16;20.55;;;11.00;;
56999;SDS011;42891;50.006;21.964;2023-08-30T21:52:16;20.70;;;11.93;;
56999;SDS011;42891;50.006;21.964;2023-08-30T21:56:17;19.27;;;10.90;;
56999;SDS011;42891;50.006;21.964;2023-08-30T22:00:17;20.83;;;11.30;;
56999;SDS011;42891;50.006;21.964;2023-08-30T22:04:18;18.73;;;10.75;;
56999;SDS011;42891;50.006;21.964;2023-08-30T22:08:18;17.33;;;10.93;;
56999;SDS011;42891;50.006;21.964;2023-08-30T22:12:19;21.20;;;11.70;;
56999;SDS011;42891;50.006;21.964;2023-08-30T22:16:20;18.10;;;10.77;;
56999;SDS011;42891;50.006;21.964;2023-08-30T22:20:21;18.73;;;10.80;;
56999;SDS011;42891;50.006;21.964;2023-08-30T22:24:23;18.58;;;10.63;;
56999;SDS011;42891;50.006;21.964;2023-08-30T22:28:23;17.98;;;10.27;;
56999;SDS011;42891;50.006;21.964;2023-08-30T22:32:23;19.70;;;11.82;;
56999;SDS011;42891;50.006;21.964;2023-08-30T22:36:24;14.55;;;9.98;;
56999;SDS011;42891;50.006;21.964;2023-08-30T22:40:25;16.27;;;10.48;;
56999;SDS011;42891;50.006;21.964;2023-08-30T22:44:25;18.52;;;10.25;;
56999;SDS011;42891;50.006;21.964;2023-08-30T22:48:25;17.00;;;10.52;;
56999;SDS011;42891;50.006;21.964;2023-08-30T22:52:26;14.82;;;9.52;;
56999;SDS011;42891;50.006;21.964;2023-08-30T22:56:26;16.85;;;10.52;;
56999;SDS011;42891;50.006;21.964;2023-08-30T23:00:27;18.13;;;10.60;;
56999;SDS011;42891;50.006;21.964;2023-08-30T23:04:27;16.10;;;9.90;;
56999;SDS011;42891;50.006;21.964;2023-08-30T23:08:28;13.02;;;9.02;;
56999;SDS011;42891;50.006;21.964;2023-08-30T23:12:29;15.77;;;9.55;;
56999;SDS011;42891;50.006;21.964;2023-08-30T23:16:29;15.57;;;10.10;;
56999;SDS011;42891;50.006;21.964;2023-08-30T23:20:32;16.20;;;10.27;;
56999;SDS011;42891;50.006;21.964;2023-08-30T23:24:34;15.73;;;8.65;;
56999;SDS011;42891;50.006;21.964;2023-08-30T23:28:35;14.43;;;9.18;;
56999;SDS011;42891;50.006;21.964;2023-08-30T23:32:36;18.98;;;10.18;;
56999;SDS011;42891;50.006;21.964;2023-08-30T23:36:36;13.48;;;9.68;;
56999;SDS011;42891;50.006;21.964;2023-08-30T23:40:36;12.17;;;8.43;;
56999;SDS011;42891;50.006;21.964;2023-08-30T23:44:37;15.15;;;9.77;;
56999;SDS011;42891;50.006;21.964;2023-08-30T23:48:38;14.50;;;9.75;;
56999;SDS011;42891;50.006;21.964;2023-08-30T23:52:38;12.60;;;9.17;;
56999;SDS011;42891;50.006;21.964;2023-08-30T23:56:38;11.73;;;8.38;;
